QBA62C KBOS-CYQY
Flight info
| Callsign | QBA62C |
|---|---|
| Flight time | 1h 19m |
| Altitude | 39000 |
| Route | CELTK7 CELTK DCT FRILL DCT TUSKY |
| Aircraft | B736/M-SDE2E3FGHIRWXY/LB1 |
Departure
| Time | 2026-05-04 22:15 |
|---|---|
| Airport | Boston Logan International Airport (KBOS) |
Arrival
| Time | 2026-05-04 23:35 |
|---|---|
| Airport | Sydney / J.A. Douglas McCurdy Airport (CYQY) |
| Time | Latitude | Longitude | Altitude | Speed | Heading |
|---|---|---|---|---|---|
| 2026-05-04 21:38 | 42.36412 | -71.02283 | 25 ft | 0 kts | 64° |
| 2026-05-04 22:01 | 42.36407 | -71.02296 | 28 ft | 4 kts | 71° |
| 2026-05-04 22:01 | 42.36403 | -71.02330 | 28 ft | 4 kts | 105° |
| 2026-05-04 22:02 | 42.36416 | -71.02359 | 27 ft | 4 kts | 147° |
| 2026-05-04 22:02 | 42.36440 | -71.02372 | 27 ft | 4 kts | 174° |
| 2026-05-04 22:02 | 42.36451 | -71.02373 | 27 ft | 0 kts | 182° |
| 2026-05-04 22:04 | 42.36445 | -71.02373 | 27 ft | 2 kts | 180° |
| 2026-05-04 22:04 | 42.36423 | -71.02367 | 26 ft | 6 kts | 160° |
| 2026-05-04 22:05 | 42.36381 | -71.02340 | 26 ft | 7 kts | 156° |
| 2026-05-04 22:05 | 42.36335 | -71.02335 | 27 ft | 7 kts | 183° |
| 2026-05-04 22:05 | 42.36294 | -71.02339 | 27 ft | 5 kts | 184° |
| 2026-05-04 22:05 | 42.36256 | -71.02335 | 24 ft | 5 kts | 166° |
| 2026-05-04 22:06 | 42.36224 | -71.02310 | 24 ft | 5 kts | 137° |
| 2026-05-04 22:06 | 42.36194 | -71.02280 | 30 ft | 5 kts | 161° |
| 2026-05-04 22:06 | 42.36156 | -71.02277 | 25 ft | 5 kts | 180° |
| 2026-05-04 22:06 | 42.36121 | -71.02264 | 27 ft | 5 kts | 147° |
| 2026-05-04 22:07 | 42.36091 | -71.02210 | 28 ft | 12 kts | 121° |
| 2026-05-04 22:07 | 42.36042 | -71.02099 | 26 ft | 14 kts | 121° |
| 2026-05-04 22:07 | 42.35992 | -71.01987 | 27 ft | 13 kts | 120° |
| 2026-05-04 22:07 | 42.35946 | -71.01881 | 26 ft | 13 kts | 121° |
| 2026-05-04 22:08 | 42.35913 | -71.01770 | 26 ft | 13 kts | 102° |
| 2026-05-04 22:08 | 42.35895 | -71.01655 | 24 ft | 12 kts | 101° |
| 2026-05-04 22:08 | 42.35904 | -71.01548 | 25 ft | 12 kts | 44° |
| 2026-05-04 22:08 | 42.35980 | -71.01505 | 26 ft | 12 kts | 19° |
| 2026-05-04 22:09 | 42.36062 | -71.01466 | 26 ft | 14 kts | 19° |
| 2026-05-04 22:09 | 42.36162 | -71.01418 | 27 ft | 17 kts | 20° |
| 2026-05-04 22:09 | 42.36281 | -71.01360 | 25 ft | 20 kts | 20° |
| 2026-05-04 22:09 | 42.36414 | -71.01296 | 26 ft | 20 kts | 20° |
| 2026-05-04 22:10 | 42.36543 | -71.01234 | 27 ft | 19 kts | 20° |
| 2026-05-04 22:10 | 42.36666 | -71.01174 | 28 ft | 19 kts | 19° |
| 2026-05-04 22:10 | 42.36787 | -71.01152 | 26 ft | 17 kts | 335° |
| 2026-05-04 22:10 | 42.36881 | -71.01223 | 27 ft | 16 kts | 13° |
| 2026-05-04 22:11 | 42.36965 | -71.01134 | 27 ft | 15 kts | 39° |
| 2026-05-04 22:11 | 42.37054 | -71.01067 | 28 ft | 14 kts | 26° |
| 2026-05-04 22:11 | 42.37142 | -71.01010 | 28 ft | 14 kts | 25° |
| 2026-05-04 22:11 | 42.37227 | -71.00954 | 26 ft | 14 kts | 26° |
| 2026-05-04 22:12 | 42.37325 | -71.00895 | 24 ft | 17 kts | 20° |
| 2026-05-04 22:12 | 42.37438 | -71.00841 | 27 ft | 17 kts | 19° |
| 2026-05-04 22:12 | 42.37547 | -71.00788 | 24 ft | 16 kts | 19° |
| 2026-05-04 22:12 | 42.37657 | -71.00735 | 26 ft | 17 kts | 21° |
| 2026-05-04 22:13 | 42.37766 | -71.00682 | 26 ft | 16 kts | 19° |
| 2026-05-04 22:13 | 42.37837 | -71.00611 | 28 ft | 12 kts | 83° |
| 2026-05-04 22:13 | 42.37834 | -71.00577 | 24 ft | 0 kts | 105° |
| 2026-05-04 22:14 | 42.37830 | -71.00560 | 26 ft | 7 kts | 108° |
| 2026-05-04 22:14 | 42.37801 | -71.00480 | 27 ft | 10 kts | 151° |
| 2026-05-04 22:14 | 42.37750 | -71.00495 | 26 ft | 7 kts | 200° |
| 2026-05-04 22:14 | 42.37638 | -71.00549 | 27 ft | 41 kts | 200° |
| 2026-05-04 22:15 | 42.37179 | -71.00770 | 25 ft | 96 kts | 200° |
| 2026-05-04 22:15 | 42.36417 | -71.01140 | 70 ft | 130 kts | 201° |
| 2026-05-04 22:15 | 42.35561 | -71.01567 | 466 ft | 133 kts | 202° |
| 2026-05-04 22:15 | 42.34654 | -71.01919 | 861 ft | 142 kts | 180° |
| 2026-05-04 22:16 | 42.33741 | -71.01304 | 1187 ft | 163 kts | 135° |
| 2026-05-04 22:16 | 42.33013 | -70.99941 | 1335 ft | 189 kts | 134° |
| 2026-05-04 22:16 | 42.32161 | -70.98485 | 1550 ft | 207 kts | 134° |
| 2026-05-04 22:16 | 42.31500 | -70.96674 | 1987 ft | 229 kts | 107° |
| 2026-05-04 22:17 | 42.31214 | -70.94409 | 2358 ft | 260 kts | 92° |
| 2026-05-04 22:17 | 42.31544 | -70.91915 | 2799 ft | 282 kts | 76° |
| 2026-05-04 22:17 | 42.32012 | -70.89311 | 3603 ft | 287 kts | 78° |
| 2026-05-04 22:17 | 42.32427 | -70.86650 | 4429 ft | 293 kts | 79° |
| 2026-05-04 22:18 | 42.32820 | -70.83953 | 5346 ft | 294 kts | 79° |
| 2026-05-04 22:18 | 42.33206 | -70.81214 | 6155 ft | 301 kts | 80° |
| 2026-05-04 22:18 | 42.33221 | -70.78384 | 6978 ft | 304 kts | 101° |
| 2026-05-04 22:18 | 42.32827 | -70.75568 | 7873 ft | 308 kts | 101° |
| 2026-05-04 22:19 | 42.32428 | -70.72702 | 8772 ft | 313 kts | 100° |
| 2026-05-04 22:19 | 42.32039 | -70.69783 | 9713 ft | 318 kts | 98° |
| 2026-05-04 22:19 | 42.31654 | -70.66812 | 10515 ft | 328 kts | 98° |
| 2026-05-04 22:19 | 42.31252 | -70.63661 | 10897 ft | 351 kts | 98° |
| 2026-05-04 22:20 | 42.30911 | -70.60350 | 11677 ft | 359 kts | 96° |
| 2026-05-04 22:20 | 42.30627 | -70.56991 | 12668 ft | 361 kts | 96° |
| 2026-05-04 22:20 | 42.30355 | -70.53606 | 13660 ft | 364 kts | 96° |
| 2026-05-04 22:20 | 42.30078 | -70.50188 | 14509 ft | 369 kts | 96° |
| 2026-05-04 22:21 | 42.29791 | -70.46723 | 15368 ft | 373 kts | 96° |
| 2026-05-04 22:21 | 42.29498 | -70.43262 | 16227 ft | 377 kts | 96° |
| 2026-05-04 22:21 | 42.29194 | -70.39720 | 17090 ft | 382 kts | 96° |
| 2026-05-04 22:21 | 42.28883 | -70.36131 | 17944 ft | 388 kts | 96° |
| 2026-05-04 22:22 | 42.28565 | -70.32488 | 18725 ft | 393 kts | 95° |
| 2026-05-04 22:22 | 42.28243 | -70.28812 | 19498 ft | 397 kts | 95° |
| 2026-05-04 22:22 | 42.27915 | -70.25090 | 20285 ft | 401 kts | 95° |
| 2026-05-04 22:22 | 42.27583 | -70.21336 | 21053 ft | 405 kts | 95° |
| 2026-05-04 22:23 | 42.27247 | -70.17539 | 21824 ft | 410 kts | 94° |
| 2026-05-04 22:23 | 42.26905 | -70.13697 | 22541 ft | 415 kts | 94° |
| 2026-05-04 22:23 | 42.26556 | -70.09806 | 23307 ft | 420 kts | 94° |
| 2026-05-04 22:23 | 42.26114 | -70.05880 | 23976 ft | 425 kts | 97° |
| 2026-05-04 22:24 | 42.25582 | -70.01934 | 24620 ft | 430 kts | 98° |
| 2026-05-04 22:24 | 42.25029 | -69.97952 | 25246 ft | 434 kts | 97° |
| 2026-05-04 22:24 | 42.24488 | -69.93928 | 25844 ft | 439 kts | 97° |
| 2026-05-04 22:24 | 42.23953 | -69.89841 | 26432 ft | 444 kts | 97° |
| 2026-05-04 22:25 | 42.23612 | -69.85702 | 26982 ft | 444 kts | 84° |
| 2026-05-04 22:25 | 42.24048 | -69.81608 | 27488 ft | 440 kts | 69° |
| 2026-05-04 22:25 | 42.25184 | -69.77813 | 28055 ft | 433 kts | 53° |
| 2026-05-04 22:25 | 42.26818 | -69.74430 | 28660 ft | 431 kts | 49° |
| 2026-05-04 22:26 | 42.28516 | -69.71070 | 29222 ft | 435 kts | 49° |
| 2026-05-04 22:26 | 42.30234 | -69.67687 | 29752 ft | 439 kts | 49° |
| 2026-05-04 22:26 | 42.31961 | -69.64266 | 30209 ft | 443 kts | 49° |
| 2026-05-04 22:26 | 42.33694 | -69.60802 | 30620 ft | 447 kts | 49° |
| 2026-05-04 22:27 | 42.35437 | -69.57289 | 31006 ft | 451 kts | 50° |
| 2026-05-04 22:27 | 42.37187 | -69.53740 | 31404 ft | 455 kts | 50° |
| 2026-05-04 22:27 | 42.38938 | -69.50172 | 31807 ft | 458 kts | 50° |
| 2026-05-04 22:27 | 42.40713 | -69.46547 | 32054 ft | 464 kts | 51° |
| 2026-05-04 22:28 | 42.42499 | -69.42894 | 32359 ft | 468 kts | 51° |
| 2026-05-04 22:28 | 42.44304 | -69.39196 | 32715 ft | 471 kts | 51° |
| 2026-05-04 22:28 | 42.46110 | -69.35490 | 33124 ft | 472 kts | 51° |
| 2026-05-04 22:28 | 42.47915 | -69.31780 | 33568 ft | 472 kts | 52° |
| 2026-05-04 22:29 | 42.49718 | -69.28071 | 33973 ft | 472 kts | 52° |
| 2026-05-04 22:29 | 42.51526 | -69.24348 | 34313 ft | 473 kts | 52° |
| 2026-05-04 22:29 | 42.53331 | -69.20629 | 34700 ft | 471 kts | 52° |
| 2026-05-04 22:29 | 42.55137 | -69.16906 | 34915 ft | 475 kts | 53° |
| 2026-05-04 22:30 | 42.56946 | -69.13177 | 34958 ft | 483 kts | 53° |
| 2026-05-04 22:30 | 42.58796 | -69.09356 | 35216 ft | 485 kts | 53° |
| 2026-05-04 22:30 | 42.60642 | -69.05532 | 35591 ft | 483 kts | 53° |
| 2026-05-04 22:30 | 42.62481 | -69.01718 | 35937 ft | 483 kts | 53° |
| 2026-05-04 22:31 | 42.64323 | -68.97895 | 36199 ft | 485 kts | 53° |
| 2026-05-04 22:31 | 42.66169 | -68.94057 | 36474 ft | 486 kts | 53° |
| 2026-05-04 22:31 | 42.68018 | -68.90210 | 36788 ft | 486 kts | 53° |
| 2026-05-04 22:31 | 42.69865 | -68.86361 | 37063 ft | 487 kts | 54° |
| 2026-05-04 22:32 | 42.71720 | -68.82493 | 37237 ft | 490 kts | 54° |
| 2026-05-04 22:32 | 42.73588 | -68.78593 | 37374 ft | 494 kts | 54° |
| 2026-05-04 22:32 | 42.75460 | -68.74679 | 37660 ft | 493 kts | 54° |
| 2026-05-04 22:32 | 42.77328 | -68.70765 | 38004 ft | 493 kts | 54° |
| 2026-05-04 22:33 | 42.79192 | -68.66855 | 38258 ft | 493 kts | 54° |
| 2026-05-04 22:33 | 42.81063 | -68.62927 | 38472 ft | 495 kts | 55° |
| 2026-05-04 22:33 | 42.82937 | -68.58987 | 38678 ft | 496 kts | 55° |
| 2026-05-04 22:33 | 42.84810 | -68.55043 | 38884 ft | 496 kts | 55° |
| 2026-05-04 22:34 | 42.86672 | -68.51118 | 38875 ft | 500 kts | 55° |
| 2026-05-04 22:34 | 42.90442 | -68.43155 | 38894 ft | 499 kts | 55° |
| 2026-05-04 22:35 | 42.94188 | -68.35218 | 38893 ft | 496 kts | 55° |
| 2026-05-04 22:35 | 42.97913 | -68.27307 | 38880 ft | 494 kts | 55° |
| 2026-05-04 22:36 | 43.01621 | -68.19411 | 38890 ft | 493 kts | 55° |
| 2026-05-04 22:36 | 43.05314 | -68.11526 | 38897 ft | 492 kts | 55° |
| 2026-05-04 22:37 | 43.09001 | -68.03635 | 38890 ft | 493 kts | 55° |
| 2026-05-04 22:37 | 43.12691 | -67.95714 | 38877 ft | 494 kts | 55° |
| 2026-05-04 22:38 | 43.16384 | -67.87766 | 38886 ft | 496 kts | 55° |
| 2026-05-04 22:38 | 43.20093 | -67.79762 | 38892 ft | 499 kts | 55° |
| 2026-05-04 22:39 | 43.23814 | -67.71710 | 38885 ft | 501 kts | 56° |
| 2026-05-04 22:39 | 43.27544 | -67.63617 | 38873 ft | 503 kts | 56° |
| 2026-05-04 22:40 | 43.31280 | -67.55485 | 38871 ft | 504 kts | 56° |
| 2026-05-04 22:40 | 43.35014 | -67.47338 | 38878 ft | 504 kts | 56° |
| 2026-05-04 22:41 | 43.38742 | -67.39178 | 38867 ft | 504 kts | 56° |
| 2026-05-04 22:41 | 43.42459 | -67.31022 | 38865 ft | 503 kts | 56° |
| 2026-05-04 22:42 | 43.46163 | -67.22872 | 38871 ft | 501 kts | 56° |
| 2026-05-04 22:42 | 43.49847 | -67.14742 | 38862 ft | 500 kts | 56° |
| 2026-05-04 22:43 | 43.53501 | -67.06657 | 38863 ft | 499 kts | 56° |
| 2026-05-04 22:43 | 43.57158 | -66.98529 | 38865 ft | 499 kts | 57° |
| 2026-05-04 22:44 | 43.60674 | -66.90280 | 38875 ft | 499 kts | 58° |
| 2026-05-04 22:44 | 43.64121 | -66.81970 | 38861 ft | 499 kts | 58° |
| 2026-05-04 22:45 | 43.66989 | -66.75058 | 38848 ft | 499 kts | 58° |
| 2026-05-04 22:45 | 43.72753 | -66.61216 | 38866 ft | 501 kts | 58° |
| 2026-05-04 22:46 | 43.75668 | -66.54209 | 38863 ft | 502 kts | 58° |
| 2026-05-04 22:46 | 43.79148 | -66.45822 | 38853 ft | 503 kts | 58° |
| 2026-05-04 22:47 | 43.82628 | -66.37405 | 38847 ft | 504 kts | 58° |
| 2026-05-04 22:47 | 43.86082 | -66.29023 | 38857 ft | 505 kts | 58° |
| 2026-05-04 22:48 | 43.89560 | -66.20561 | 38845 ft | 505 kts | 58° |
| 2026-05-04 22:48 | 43.93033 | -66.12085 | 38821 ft | 505 kts | 58° |
| 2026-05-04 22:49 | 43.96494 | -66.03613 | 38838 ft | 504 kts | 58° |
| 2026-05-04 22:49 | 43.99945 | -65.95141 | 38860 ft | 504 kts | 58° |
| 2026-05-04 22:50 | 44.03390 | -65.86658 | 38848 ft | 504 kts | 58° |
| 2026-05-04 22:50 | 44.06822 | -65.78181 | 38849 ft | 503 kts | 59° |
| 2026-05-04 22:51 | 44.10246 | -65.69700 | 38847 ft | 502 kts | 59° |
| 2026-05-04 22:51 | 44.13653 | -65.61237 | 38840 ft | 501 kts | 59° |
| 2026-05-04 22:52 | 44.17052 | -65.52767 | 38841 ft | 501 kts | 59° |
| 2026-05-04 22:52 | 44.20446 | -65.44283 | 38832 ft | 500 kts | 59° |
| 2026-05-04 22:53 | 44.23828 | -65.35804 | 38854 ft | 500 kts | 59° |
| 2026-05-04 22:53 | 44.27187 | -65.27358 | 38844 ft | 501 kts | 59° |
| 2026-05-04 22:54 | 44.30568 | -65.18831 | 38833 ft | 502 kts | 59° |
| 2026-05-04 22:54 | 44.33944 | -65.10292 | 38835 ft | 503 kts | 59° |
| 2026-05-04 22:55 | 44.37319 | -65.01728 | 38842 ft | 503 kts | 59° |
| 2026-05-04 22:55 | 44.40691 | -64.93146 | 38815 ft | 504 kts | 59° |
| 2026-05-04 22:56 | 44.44059 | -64.84548 | 38791 ft | 504 kts | 59° |
| 2026-05-04 22:56 | 44.47417 | -64.75947 | 38794 ft | 504 kts | 59° |
| 2026-05-04 22:57 | 44.50772 | -64.67329 | 38797 ft | 504 kts | 59° |
| 2026-05-04 22:57 | 44.54120 | -64.58704 | 38787 ft | 504 kts | 59° |
| 2026-05-04 22:58 | 44.57446 | -64.50107 | 38776 ft | 504 kts | 59° |
| 2026-05-04 22:58 | 44.60784 | -64.41452 | 38767 ft | 504 kts | 59° |
| 2026-05-04 22:59 | 44.64119 | -64.32780 | 38776 ft | 504 kts | 60° |
| 2026-05-04 22:59 | 44.67443 | -64.24108 | 38770 ft | 504 kts | 60° |
| 2026-05-04 23:00 | 44.70761 | -64.15424 | 38756 ft | 504 kts | 60° |
| 2026-05-04 23:00 | 44.74071 | -64.06736 | 38769 ft | 504 kts | 60° |
| 2026-05-04 23:01 | 44.77373 | -63.98040 | 38782 ft | 504 kts | 60° |
| 2026-05-04 23:01 | 44.80670 | -63.89330 | 38768 ft | 504 kts | 60° |
| 2026-05-04 23:02 | 44.83960 | -63.80610 | 38770 ft | 504 kts | 60° |
| 2026-05-04 23:02 | 44.87219 | -63.71946 | 38776 ft | 503 kts | 60° |
| 2026-05-04 23:03 | 44.90486 | -63.63234 | 38787 ft | 502 kts | 60° |
| 2026-05-04 23:03 | 44.93744 | -63.54518 | 38776 ft | 501 kts | 60° |
| 2026-05-04 23:04 | 44.96988 | -63.45812 | 38771 ft | 500 kts | 60° |
| 2026-05-04 23:04 | 45.00216 | -63.37120 | 38769 ft | 500 kts | 60° |
| 2026-05-04 23:05 | 45.03437 | -63.28420 | 38776 ft | 499 kts | 61° |
| 2026-05-04 23:05 | 45.06651 | -63.19712 | 38762 ft | 499 kts | 61° |
| 2026-05-04 23:06 | 45.09859 | -63.10993 | 38773 ft | 499 kts | 61° |
| 2026-05-04 23:06 | 45.13057 | -63.02274 | 38765 ft | 499 kts | 61° |
| 2026-05-04 23:07 | 45.16232 | -62.93588 | 38770 ft | 499 kts | 61° |
| 2026-05-04 23:07 | 45.19420 | -62.84838 | 38763 ft | 500 kts | 61° |
| 2026-05-04 23:08 | 45.22602 | -62.76078 | 38752 ft | 500 kts | 62° |
| 2026-05-04 23:08 | 45.25760 | -62.67355 | 38737 ft | 487 kts | 62° |
| 2026-05-04 23:09 | 45.27280 | -62.63142 | 38746 ft | 472 kts | 62° |
| 2026-05-04 23:09 | 45.28757 | -62.59044 | 38736 ft | 463 kts | 62° |
| 2026-05-04 23:09 | 45.31702 | -62.50861 | 38771 ft | 469 kts | 62° |
| 2026-05-04 23:10 | 45.34661 | -62.42617 | 38518 ft | 465 kts | 62° |
| 2026-05-04 23:10 | 45.36141 | -62.38484 | 37565 ft | 473 kts | 62° |
| 2026-05-04 23:10 | 45.37652 | -62.34259 | 36457 ft | 485 kts | 62° |
| 2026-05-04 23:11 | 45.39179 | -62.29982 | 36039 ft | 481 kts | 62° |
| 2026-05-04 23:11 | 45.40672 | -62.25784 | 35906 ft | 469 kts | 62° |
| 2026-05-04 23:11 | 45.42125 | -62.21695 | 35759 ft | 457 kts | 61° |
| 2026-05-04 23:11 | 45.43612 | -62.17776 | 35733 ft | 443 kts | 58° |
| 2026-05-04 23:12 | 45.45158 | -62.14059 | 35718 ft | 429 kts | 56° |
| 2026-05-04 23:12 | 45.46698 | -62.10490 | 35698 ft | 415 kts | 56° |
| 2026-05-04 23:12 | 45.48194 | -62.07046 | 35706 ft | 402 kts | 56° |
| 2026-05-04 23:12 | 45.49635 | -62.03710 | 35719 ft | 390 kts | 56° |
| 2026-05-04 23:13 | 45.52482 | -61.97053 | 35787 ft | 402 kts | 57° |
| 2026-05-04 23:13 | 45.55395 | -61.90158 | 35265 ft | 410 kts | 57° |
| 2026-05-04 23:14 | 45.56882 | -61.86619 | 34458 ft | 424 kts | 57° |
| 2026-05-04 23:14 | 45.58427 | -61.82933 | 33448 ft | 441 kts | 57° |
| 2026-05-04 23:14 | 45.60036 | -61.79091 | 32136 ft | 461 kts | 57° |
| 2026-05-04 23:14 | 45.61716 | -61.75069 | 30816 ft | 480 kts | 57° |
| 2026-05-04 23:15 | 45.63421 | -61.70976 | 29802 ft | 487 kts | 57° |
| 2026-05-04 23:15 | 45.65141 | -61.66833 | 28757 ft | 482 kts | 57° |
| 2026-05-04 23:15 | 45.66839 | -61.62732 | 27886 ft | 474 kts | 57° |
| 2026-05-04 23:15 | 45.68502 | -61.58712 | 27074 ft | 466 kts | 57° |
| 2026-05-04 23:16 | 45.70143 | -61.54744 | 26240 ft | 460 kts | 57° |
| 2026-05-04 23:16 | 45.71760 | -61.50833 | 25392 ft | 454 kts | 57° |
| 2026-05-04 23:16 | 45.73360 | -61.46958 | 24497 ft | 451 kts | 58° |
| 2026-05-04 23:16 | 45.74961 | -61.43081 | 23387 ft | 454 kts | 58° |
| 2026-05-04 23:17 | 45.76568 | -61.39181 | 22150 ft | 456 kts | 58° |
| 2026-05-04 23:17 | 45.78151 | -61.35333 | 21679 ft | 438 kts | 58° |
| 2026-05-04 23:17 | 45.79665 | -61.31641 | 21205 ft | 423 kts | 58° |
| 2026-05-04 23:17 | 45.81146 | -61.28029 | 20369 ft | 419 kts | 58° |
| 2026-05-04 23:18 | 45.82618 | -61.24437 | 19614 ft | 415 kts | 58° |
| 2026-05-04 23:18 | 45.84062 | -61.20907 | 19127 ft | 409 kts | 58° |
| 2026-05-04 23:18 | 45.85496 | -61.17401 | 18641 ft | 407 kts | 58° |
| 2026-05-04 23:18 | 45.86905 | -61.13950 | 18160 ft | 405 kts | 58° |
| 2026-05-04 23:19 | 45.88325 | -61.10468 | 17644 ft | 403 kts | 58° |
| 2026-05-04 23:19 | 45.89729 | -61.07020 | 17319 ft | 397 kts | 58° |
| 2026-05-04 23:19 | 45.91115 | -61.03609 | 16940 ft | 393 kts | 58° |
| 2026-05-04 23:19 | 45.92486 | -61.00233 | 16553 ft | 388 kts | 58° |
| 2026-05-04 23:20 | 45.93830 | -60.96918 | 16201 ft | 383 kts | 57° |
| 2026-05-04 23:20 | 45.95170 | -60.93610 | 15740 ft | 381 kts | 57° |
| 2026-05-04 23:20 | 45.96502 | -60.90319 | 15278 ft | 379 kts | 57° |
| 2026-05-04 23:20 | 45.97822 | -60.87053 | 14821 ft | 377 kts | 57° |
| 2026-05-04 23:21 | 45.99140 | -60.83790 | 14376 ft | 375 kts | 57° |
| 2026-05-04 23:21 | 46.00443 | -60.80558 | 13923 ft | 373 kts | 57° |
| 2026-05-04 23:21 | 46.01742 | -60.77333 | 13465 ft | 371 kts | 57° |
| 2026-05-04 23:21 | 46.03033 | -60.74124 | 12966 ft | 369 kts | 57° |
| 2026-05-04 23:22 | 46.04315 | -60.70934 | 12490 ft | 367 kts | 57° |
| 2026-05-04 23:22 | 46.05585 | -60.67769 | 12036 ft | 364 kts | 57° |
| 2026-05-04 23:22 | 46.06845 | -60.64625 | 11589 ft | 361 kts | 57° |
| 2026-05-04 23:22 | 46.08078 | -60.61546 | 11142 ft | 359 kts | 57° |
| 2026-05-04 23:23 | 46.09322 | -60.58435 | 10698 ft | 357 kts | 57° |
| 2026-05-04 23:23 | 46.10555 | -60.55350 | 10332 ft | 352 kts | 57° |
| 2026-05-04 23:23 | 46.11754 | -60.52339 | 10185 ft | 340 kts | 56° |
| 2026-05-04 23:23 | 46.12913 | -60.49427 | 10037 ft | 330 kts | 56° |
| 2026-05-04 23:24 | 46.14042 | -60.46590 | 9782 ft | 324 kts | 56° |
| 2026-05-04 23:24 | 46.15161 | -60.43779 | 9447 ft | 322 kts | 56° |
| 2026-05-04 23:24 | 46.16273 | -60.40986 | 9094 ft | 320 kts | 56° |
| 2026-05-04 23:24 | 46.17379 | -60.38203 | 8725 ft | 319 kts | 56° |
| 2026-05-04 23:25 | 46.18479 | -60.35432 | 8385 ft | 317 kts | 56° |
| 2026-05-04 23:25 | 46.19569 | -60.32682 | 8058 ft | 315 kts | 56° |
| 2026-05-04 23:25 | 46.20657 | -60.29935 | 7729 ft | 313 kts | 56° |
| 2026-05-04 23:25 | 46.21732 | -60.27215 | 7393 ft | 312 kts | 56° |
| 2026-05-04 23:26 | 46.22805 | -60.24500 | 7045 ft | 310 kts | 56° |
| 2026-05-04 23:26 | 46.23852 | -60.21847 | 6719 ft | 307 kts | 56° |
| 2026-05-04 23:26 | 46.24908 | -60.19169 | 6365 ft | 306 kts | 56° |
| 2026-05-04 23:26 | 46.25964 | -60.16488 | 5999 ft | 306 kts | 55° |
| 2026-05-04 23:27 | 46.26999 | -60.13856 | 5639 ft | 298 kts | 56° |
| 2026-05-04 23:27 | 46.28007 | -60.11288 | 5304 ft | 289 kts | 55° |
| 2026-05-04 23:27 | 46.28986 | -60.08795 | 5022 ft | 280 kts | 55° |
| 2026-05-04 23:27 | 46.29934 | -60.06380 | 4757 ft | 272 kts | 55° |
| 2026-05-04 23:28 | 46.30856 | -60.04027 | 4580 ft | 264 kts | 55° |
| 2026-05-04 23:28 | 46.31739 | -60.01769 | 4493 ft | 254 kts | 55° |
| 2026-05-04 23:28 | 46.32599 | -59.99572 | 4364 ft | 249 kts | 54° |
| 2026-05-04 23:28 | 46.33394 | -59.97348 | 4261 ft | 252 kts | 68° |
| 2026-05-04 23:29 | 46.33459 | -59.94830 | 4102 ft | 252 kts | 110° |
| 2026-05-04 23:29 | 46.32616 | -59.92706 | 4056 ft | 241 kts | 140° |
| 2026-05-04 23:29 | 46.31444 | -59.90978 | 3994 ft | 241 kts | 145° |
| 2026-05-04 23:29 | 46.30170 | -59.89380 | 3583 ft | 233 kts | 159° |
| 2026-05-04 23:30 | 46.28754 | -59.88772 | 3292 ft | 201 kts | 192° |
| 2026-05-04 23:30 | 46.27451 | -59.89074 | 3099 ft | 183 kts | 210° |
| 2026-05-04 23:30 | 46.26463 | -59.90002 | 2900 ft | 161 kts | 231° |
| 2026-05-04 23:30 | 46.25636 | -59.91040 | 2688 ft | 153 kts | 230° |
| 2026-05-04 23:31 | 46.24894 | -59.92040 | 2493 ft | 138 kts | 232° |
| 2026-05-04 23:31 | 46.24254 | -59.92945 | 2311 ft | 120 kts | 234° |
| 2026-05-04 23:31 | 46.23719 | -59.93717 | 2167 ft | 99 kts | 235° |
| 2026-05-04 23:31 | 46.23263 | -59.94387 | 2060 ft | 93 kts | 236° |
| 2026-05-04 23:32 | 46.22801 | -59.95073 | 1945 ft | 97 kts | 235° |
| 2026-05-04 23:32 | 46.22328 | -59.95772 | 1808 ft | 99 kts | 234° |
| 2026-05-04 23:32 | 46.21854 | -59.96471 | 1666 ft | 97 kts | 234° |
| 2026-05-04 23:32 | 46.21382 | -59.97169 | 1537 ft | 97 kts | 233° |
| 2026-05-04 23:33 | 46.20919 | -59.97853 | 1421 ft | 94 kts | 233° |
| 2026-05-04 23:33 | 46.20458 | -59.98538 | 1294 ft | 97 kts | 232° |
| 2026-05-04 23:33 | 46.19978 | -59.99252 | 1157 ft | 99 kts | 232° |
| 2026-05-04 23:33 | 46.19480 | -59.99989 | 1066 ft | 106 kts | 231° |
| 2026-05-04 23:34 | 46.18950 | -60.00769 | 899 ft | 110 kts | 229° |
| 2026-05-04 23:34 | 46.18416 | -60.01557 | 751 ft | 108 kts | 229° |
| 2026-05-04 23:34 | 46.18065 | -60.02078 | 648 ft | 110 kts | 229° |
| 2026-05-04 23:34 | 46.17335 | -60.03165 | 416 ft | 115 kts | 227° |
| 2026-05-04 23:35 | 46.16964 | -60.03716 | 314 ft | 116 kts | 228° |
| 2026-05-04 23:35 | 46.16409 | -60.04539 | 200 ft | 107 kts | 225° |
| 2026-05-04 23:35 | 46.16029 | -60.05108 | 197 ft | 48 kts | 227° |
| 2026-05-04 23:35 | 46.15932 | -60.05261 | 201 ft | 6 kts | 228° |
| 2026-05-04 23:36 | 46.15899 | -60.05319 | 194 ft | 9 kts | 236° |
| 2026-05-04 23:36 | 46.15867 | -60.05348 | 197 ft | 3 kts | 158° |
| 2026-05-04 23:36 | 46.15901 | -60.05282 | 194 ft | 16 kts | 42° |
| 2026-05-04 23:36 | 46.15989 | -60.05160 | 198 ft | 19 kts | 45° |
| 2026-05-04 23:37 | 46.16096 | -60.05007 | 195 ft | 24 kts | 46° |
| 2026-05-04 23:37 | 46.16207 | -60.04841 | 200 ft | 23 kts | 46° |
| 2026-05-04 23:37 | 46.16298 | -60.04745 | 199 ft | 14 kts | 358° |
| 2026-05-04 23:37 | 46.16353 | -60.04853 | 199 ft | 14 kts | 292° |
| 2026-05-04 23:38 | 46.16391 | -60.04960 | 202 ft | 11 kts | 321° |
| 2026-05-04 23:38 | 46.16457 | -60.04918 | 203 ft | 11 kts | 51° |
| 2026-05-04 23:38 | 46.16510 | -60.04839 | 206 ft | 11 kts | 45° |
| 2026-05-04 23:38 | 46.16566 | -60.04755 | 201 ft | 13 kts | 47° |
| 2026-05-04 23:39 | 46.16615 | -60.04687 | 203 ft | 9 kts | 24° |
| 2026-05-04 23:39 | 46.16670 | -60.04684 | 204 ft | 6 kts | 360° |
| 2026-05-04 23:39 | 46.16689 | -60.04684 | 199 ft | 0 kts | 360° |
| 2026-05-04 23:40 | 46.16688 | -60.04684 | 199 ft | 0 kts | 0° |